sensor_id;sensor_type;location;lat;lon;timestamp;temperature;humidity
37460;DHT22;23318;50.966;5.284;2023-06-22T00:00:42;23.10;99.90
37460;DHT22;23318;50.966;5.284;2023-06-22T00:03:09;22.90;99.90
37460;DHT22;23318;50.966;5.284;2023-06-22T00:05:34;23.00;99.90
37460;DHT22;23318;50.966;5.284;2023-06-22T00:08:03;23.10;99.90
37460;DHT22;23318;50.966;5.284;2023-06-22T00:10:32;23.00;99.90
37460;DHT22;23318;50.966;5.284;2023-06-22T00:12:58;22.90;99.90
37460;DHT22;23318;50.966;5.284;2023-06-22T00:15:23;22.80;99.90
37460;DHT22;23318;50.966;5.284;2023-06-22T00:17:50;22.70;99.90
37460;DHT22;23318;50.966;5.284;2023-06-22T00:20:15;22.50;99.90
37460;DHT22;23318;50.966;5.284;2023-06-22T00:22:46;22.50;99.90
37460;DHT22;23318;50.966;5.284;2023-06-22T00:25:13;22.50;99.90
37460;DHT22;23318;50.966;5.284;2023-06-22T00:27:39;22.60;99.90
37460;DHT22;23318;50.966;5.284;2023-06-22T00:30:05;22.60;99.90
37460;DHT22;23318;50.966;5.284;2023-06-22T00:32:30;22.60;99.90
37460;DHT22;23318;50.966;5.284;2023-06-22T00:34:56;22.60;99.90
37460;DHT22;23318;50.966;5.284;2023-06-22T00:37:22;22.50;99.90
37460;DHT22;23318;50.966;5.284;2023-06-22T00:39:51;22.40;99.90
37460;DHT22;23318;50.966;5.284;2023-06-22T00:42:17;22.50;99.90
37460;DHT22;23318;50.966;5.284;2023-06-22T00:44:43;22.60;99.90
37460;DHT22;23318;50.966;5.284;2023-06-22T00:47:11;22.70;99.90
37460;DHT22;23318;50.966;5.284;2023-06-22T00:49:38;22.70;99.90
37460;DHT22;23318;50.966;5.284;2023-06-22T00:52:05;22.60;99.90
37460;DHT22;23318;50.966;5.284;2023-06-22T00:54:35;22.50;99.90
37460;DHT22;23318;50.966;5.284;2023-06-22T00:57:02;22.40;99.90
37460;DHT22;23318;50.966;5.284;2023-06-22T00:59:28;22.40;99.90
37460;DHT22;23318;50.966;5.284;2023-06-22T01:01:54;22.50;99.90
37460;DHT22;23318;50.966;5.284;2023-06-22T01:04:21;22.50;99.90
37460;DHT22;23318;50.966;5.284;2023-06-22T01:10:11;22.40;99.90
37460;DHT22;23318;50.966;5.284;2023-06-22T01:12:44;22.40;99.90
37460;DHT22;23318;50.966;5.284;2023-06-22T01:15:16;22.20;99.90
37460;DHT22;23318;50.966;5.284;2023-06-22T01:17:45;22.20;99.90
37460;DHT22;23318;50.966;5.284;2023-06-22T01:20:14;22.20;99.90
37460;DHT22;23318;50.966;5.284;2023-06-22T01:25:47;22.10;99.90
37460;DHT22;23318;50.966;5.284;2023-06-22T01:28:23;22.00;99.90
37460;DHT22;23318;50.966;5.284;2023-06-22T01:30:51;22.00;99.90
37460;DHT22;23318;50.966;5.284;2023-06-22T01:33:29;22.00;99.90
37460;DHT22;23318;50.966;5.284;2023-06-22T01:35:56;21.90;99.90
37460;DHT22;23318;50.966;5.284;2023-06-22T01:38:22;21.80;99.90
37460;DHT22;23318;50.966;5.284;2023-06-22T01:40:48;22.00;99.90
37460;DHT22;23318;50.966;5.284;2023-06-22T01:43:15;22.10;99.90
37460;DHT22;23318;50.966;5.284;2023-06-22T01:45:42;21.90;99.90
37460;DHT22;23318;50.966;5.284;2023-06-22T01:48:08;21.90;99.90
37460;DHT22;23318;50.966;5.284;2023-06-22T01:50:34;21.90;99.90
37460;DHT22;23318;50.966;5.284;2023-06-22T01:52:59;22.00;99.90
37460;DHT22;23318;50.966;5.284;2023-06-22T01:55:25;22.00;99.90
37460;DHT22;23318;50.966;5.284;2023-06-22T01:57:50;22.10;99.90
37460;DHT22;23318;50.966;5.284;2023-06-22T02:00:20;21.90;99.90
37460;DHT22;23318;50.966;5.284;2023-06-22T02:02:52;22.10;99.90
37460;DHT22;23318;50.966;5.284;2023-06-22T02:05:19;22.30;99.90
37460;DHT22;23318;50.966;5.284;2023-06-22T02:08:15;22.20;99.90
37460;DHT22;23318;50.966;5.284;2023-06-22T02:10:45;22.00;99.90
37460;DHT22;23318;50.966;5.284;2023-06-22T02:13:13;21.90;99.90
37460;DHT22;23318;50.966;5.284;2023-06-22T02:15:40;22.20;99.90
37460;DHT22;23318;50.966;5.284;2023-06-22T02:18:06;22.30;99.90
37460;DHT22;23318;50.966;5.284;2023-06-22T02:20:32;22.10;99.90
37460;DHT22;23318;50.966;5.284;2023-06-22T02:22:58;21.80;99.90
37460;DHT22;23318;50.966;5.284;2023-06-22T02:25:23;21.60;99.90
37460;DHT22;23318;50.966;5.284;2023-06-22T02:27:49;21.70;99.90
37460;DHT22;23318;50.966;5.284;2023-06-22T02:30:15;21.30;99.90
37460;DHT22;23318;50.966;5.284;2023-06-22T02:32:41;21.20;99.90
37460;DHT22;23318;50.966;5.284;2023-06-22T02:35:11;21.40;99.90
37460;DHT22;23318;50.966;5.284;2023-06-22T02:37:37;21.90;99.90
37460;DHT22;23318;50.966;5.284;2023-06-22T02:40:10;22.10;99.90
37460;DHT22;23318;50.966;5.284;2023-06-22T02:42:36;22.10;99.90
37460;DHT22;23318;50.966;5.284;2023-06-22T02:45:02;22.00;99.90
37460;DHT22;23318;50.966;5.284;2023-06-22T02:47:29;22.00;99.90
37460;DHT22;23318;50.966;5.284;2023-06-22T02:49:54;21.70;99.90
37460;DHT22;23318;50.966;5.284;2023-06-22T02:52:20;21.50;99.90
37460;DHT22;23318;50.966;5.284;2023-06-22T02:54:46;21.40;99.90
37460;DHT22;23318;50.966;5.284;2023-06-22T02:57:12;21.40;99.90
37460;DHT22;23318;50.966;5.284;2023-06-22T02:59:41;21.40;99.90
37460;DHT22;23318;50.966;5.284;2023-06-22T03:02:07;21.30;99.90
37460;DHT22;23318;50.966;5.284;2023-06-22T03:04:34;21.30;99.90
37460;DHT22;23318;50.966;5.284;2023-06-22T03:07:00;21.30;99.90
37460;DHT22;23318;50.966;5.284;2023-06-22T03:09:27;21.20;99.90
37460;DHT22;23318;50.966;5.284;2023-06-22T03:11:53;21.10;99.90
37460;DHT22;23318;50.966;5.284;2023-06-22T03:14:19;21.10;99.90
37460;DHT22;23318;50.966;5.284;2023-06-22T03:16:45;20.90;99.90
37460;DHT22;23318;50.966;5.284;2023-06-22T03:19:11;20.90;99.90
37460;DHT22;23318;50.966;5.284;2023-06-22T03:21:37;20.90;99.90
37460;DHT22;23318;50.966;5.284;2023-06-22T03:24:04;20.90;99.90
37460;DHT22;23318;50.966;5.284;2023-06-22T03:26:30;20.90;99.90
37460;DHT22;23318;50.966;5.284;2023-06-22T03:28:56;20.80;99.90
37460;DHT22;23318;50.966;5.284;2023-06-22T03:31:22;20.80;99.90
37460;DHT22;23318;50.966;5.284;2023-06-22T03:33:48;20.80;99.90
37460;DHT22;23318;50.966;5.284;2023-06-22T03:36:15;20.80;99.90
37460;DHT22;23318;50.966;5.284;2023-06-22T03:38:45;20.70;99.90
37460;DHT22;23318;50.966;5.284;2023-06-22T03:41:11;20.70;99.90
37460;DHT22;23318;50.966;5.284;2023-06-22T03:43:36;20.70;99.90
37460;DHT22;23318;50.966;5.284;2023-06-22T03:46:02;20.70;99.90
37460;DHT22;23318;50.966;5.284;2023-06-22T03:48:28;20.80;99.90
37460;DHT22;23318;50.966;5.284;2023-06-22T03:50:53;20.80;99.90
37460;DHT22;23318;50.966;5.284;2023-06-22T03:53:19;20.70;99.90
37460;DHT22;23318;50.966;5.284;2023-06-22T03:55:52;21.00;99.90
37460;DHT22;23318;50.966;5.284;2023-06-22T03:58:19;21.00;99.90
37460;DHT22;23318;50.966;5.284;2023-06-22T04:00:50;21.10;99.90
37460;DHT22;23318;50.966;5.284;2023-06-22T04:03:16;21.20;99.90
37460;DHT22;23318;50.966;5.284;2023-06-22T04:05:44;21.20;99.90
37460;DHT22;23318;50.966;5.284;2023-06-22T04:08:10;21.40;99.90
37460;DHT22;23318;50.966;5.284;2023-06-22T04:10:36;21.60;99.90
37460;DHT22;23318;50.966;5.284;2023-06-22T04:13:01;21.30;99.90
37460;DHT22;23318;50.966;5.284;2023-06-22T04:15:27;21.10;99.90
37460;DHT22;23318;50.966;5.284;2023-06-22T04:17:55;20.70;99.90
37460;DHT22;23318;50.966;5.284;2023-06-22T04:20:21;20.20;99.90
37460;DHT22;23318;50.966;5.284;2023-06-22T04:22:46;20.00;99.90
37460;DHT22;23318;50.966;5.284;2023-06-22T04:25:12;20.10;99.90
37460;DHT22;23318;50.966;5.284;2023-06-22T04:27:38;20.60;99.90
37460;DHT22;23318;50.966;5.284;2023-06-22T04:30:06;20.90;99.90
37460;DHT22;23318;50.966;5.284;2023-06-22T04:32:35;21.20;99.90
37460;DHT22;23318;50.966;5.284;2023-06-22T04:35:05;21.10;99.90
37460;DHT22;23318;50.966;5.284;2023-06-22T04:37:32;21.30;99.90
37460;DHT22;23318;50.966;5.284;2023-06-22T04:39:58;21.40;99.90
37460;DHT22;23318;50.966;5.284;2023-06-22T04:42:26;21.10;99.90
37460;DHT22;23318;50.966;5.284;2023-06-22T04:44:52;21.30;99.90
37460;DHT22;23318;50.966;5.284;2023-06-22T04:47:17;21.60;99.90
37460;DHT22;23318;50.966;5.284;2023-06-22T04:49:43;21.50;99.90
37460;DHT22;23318;50.966;5.284;2023-06-22T04:52:11;21.40;99.90
37460;DHT22;23318;50.966;5.284;2023-06-22T04:54:38;21.30;99.90
37460;DHT22;23318;50.966;5.284;2023-06-22T04:57:07;21.30;99.90
37460;DHT22;23318;50.966;5.284;2023-06-22T04:59:37;21.40;99.90
37460;DHT22;23318;50.966;5.284;2023-06-22T05:02:05;21.40;99.90
37460;DHT22;23318;50.966;5.284;2023-06-22T05:04:31;21.50;99.90
37460;DHT22;23318;50.966;5.284;2023-06-22T05:06:58;21.30;99.90
37460;DHT22;23318;50.966;5.284;2023-06-22T05:09:24;21.30;99.90
37460;DHT22;23318;50.966;5.284;2023-06-22T05:11:50;21.30;99.90
37460;DHT22;23318;50.966;5.284;2023-06-22T05:14:16;21.30;99.90
37460;DHT22;23318;50.966;5.284;2023-06-22T05:16:42;21.30;99.90
37460;DHT22;23318;50.966;5.284;2023-06-22T05:19:08;21.30;99.90
37460;DHT22;23318;50.966;5.284;2023-06-22T05:21:34;21.40;99.90
37460;DHT22;23318;50.966;5.284;2023-06-22T05:24:00;21.50;99.90
37460;DHT22;23318;50.966;5.284;2023-06-22T05:26:28;21.50;99.90
37460;DHT22;23318;50.966;5.284;2023-06-22T05:28:54;21.50;99.90
37460;DHT22;23318;50.966;5.284;2023-06-22T05:31:20;21.60;99.90
37460;DHT22;23318;50.966;5.284;2023-06-22T05:33:47;21.40;99.90
37460;DHT22;23318;50.966;5.284;2023-06-22T05:36:13;21.30;99.90
37460;DHT22;23318;50.966;5.284;2023-06-22T05:38:40;21.30;99.90
37460;DHT22;23318;50.966;5.284;2023-06-22T05:41:06;21.30;99.90
37460;DHT22;23318;50.966;5.284;2023-06-22T05:43:32;21.10;99.90
37460;DHT22;23318;50.966;5.284;2023-06-22T05:45:59;21.10;99.90
37460;DHT22;23318;50.966;5.284;2023-06-22T05:48:25;21.20;99.90
37460;DHT22;23318;50.966;5.284;2023-06-22T05:50:50;21.30;99.90
37460;DHT22;23318;50.966;5.284;2023-06-22T05:53:16;21.50;99.90
37460;DHT22;23318;50.966;5.284;2023-06-22T05:55:42;21.50;99.90
37460;DHT22;23318;50.966;5.284;2023-06-22T05:58:08;21.50;99.90
37460;DHT22;23318;50.966;5.284;2023-06-22T06:00:34;21.40;99.90
37460;DHT22;23318;50.966;5.284;2023-06-22T06:02:59;21.30;99.90
37460;DHT22;23318;50.966;5.284;2023-06-22T06:05:32;21.30;99.90
37460;DHT22;23318;50.966;5.284;2023-06-22T06:07:59;21.10;99.90
37460;DHT22;23318;50.966;5.284;2023-06-22T06:10:24;21.30;99.90
37460;DHT22;23318;50.966;5.284;2023-06-22T06:12:50;21.40;99.90
37460;DHT22;23318;50.966;5.284;2023-06-22T06:15:16;21.30;99.90
37460;DHT22;23318;50.966;5.284;2023-06-22T06:17:49;21.20;99.90
37460;DHT22;23318;50.966;5.284;2023-06-22T06:20:20;21.30;99.90
37460;DHT22;23318;50.966;5.284;2023-06-22T06:22:47;21.40;99.90
37460;DHT22;23318;50.966;5.284;2023-06-22T06:25:13;21.40;99.90
37460;DHT22;23318;50.966;5.284;2023-06-22T06:27:48;21.50;99.90
37460;DHT22;23318;50.966;5.284;2023-06-22T06:30:17;21.60;99.90
37460;DHT22;23318;50.966;5.284;2023-06-22T06:32:43;21.50;99.90
37460;DHT22;23318;50.966;5.284;2023-06-22T06:35:11;21.60;99.90
37460;DHT22;23318;50.966;5.284;2023-06-22T06:37:39;21.60;99.90
37460;DHT22;23318;50.966;5.284;2023-06-22T06:40:12;21.40;99.90
37460;DHT22;23318;50.966;5.284;2023-06-22T06:42:39;21.30;99.90
37460;DHT22;23318;50.966;5.284;2023-06-22T06:45:08;21.40;99.90
37460;DHT22;23318;50.966;5.284;2023-06-22T06:47:34;21.50;99.90
37460;DHT22;23318;50.966;5.284;2023-06-22T06:49:59;21.70;99.90
37460;DHT22;23318;50.966;5.284;2023-06-22T06:52:25;21.60;99.90
37460;DHT22;23318;50.966;5.284;2023-06-22T06:54:51;21.70;99.90
37460;DHT22;23318;50.966;5.284;2023-06-22T06:57:18;21.50;99.90
37460;DHT22;23318;50.966;5.284;2023-06-22T06:59:44;21.70;99.90
37460;DHT22;23318;50.966;5.284;2023-06-22T07:02:09;21.90;99.90
37460;DHT22;23318;50.966;5.284;2023-06-22T07:04:35;21.90;99.90
37460;DHT22;23318;50.966;5.284;2023-06-22T07:07:02;22.00;99.90
37460;DHT22;23318;50.966;5.284;2023-06-22T07:09:28;22.20;99.90
37460;DHT22;23318;50.966;5.284;2023-06-22T07:11:54;22.20;99.90
37460;DHT22;23318;50.966;5.284;2023-06-22T07:14:19;22.30;99.90
37460;DHT22;23318;50.966;5.284;2023-06-22T07:16:45;22.10;99.90
37460;DHT22;23318;50.966;5.284;2023-06-22T07:19:14;22.20;99.90
37460;DHT22;23318;50.966;5.284;2023-06-22T07:21:39;22.30;99.90
37460;DHT22;23318;50.966;5.284;2023-06-22T07:24:06;22.20;99.90
37460;DHT22;23318;50.966;5.284;2023-06-22T07:26:32;22.10;99.90
37460;DHT22;23318;50.966;5.284;2023-06-22T07:28:58;22.10;99.90
37460;DHT22;23318;50.966;5.284;2023-06-22T07:31:26;22.30;99.90
37460;DHT22;23318;50.966;5.284;2023-06-22T07:33:52;22.20;99.90
37460;DHT22;23318;50.966;5.284;2023-06-22T07:36:18;22.40;99.90
37460;DHT22;23318;50.966;5.284;2023-06-22T07:38:44;22.40;99.90
37460;DHT22;23318;50.966;5.284;2023-06-22T07:41:10;22.50;99.90
37460;DHT22;23318;50.966;5.284;2023-06-22T07:43:35;22.40;99.90
37460;DHT22;23318;50.966;5.284;2023-06-22T07:46:05;22.30;99.90
37460;DHT22;23318;50.966;5.284;2023-06-22T07:48:31;22.30;99.90
37460;DHT22;23318;50.966;5.284;2023-06-22T07:50:57;22.20;99.90
37460;DHT22;23318;50.966;5.284;2023-06-22T07:53:23;22.20;99.90
37460;DHT22;23318;50.966;5.284;2023-06-22T07:55:49;22.40;99.90
37460;DHT22;23318;50.966;5.284;2023-06-22T07:58:15;22.60;99.90
37460;DHT22;23318;50.966;5.284;2023-06-22T08:00:41;22.40;99.90
37460;DHT22;23318;50.966;5.284;2023-06-22T08:03:07;22.40;99.90
37460;DHT22;23318;50.966;5.284;2023-06-22T08:05:32;22.40;99.90
37460;DHT22;23318;50.966;5.284;2023-06-22T08:07:58;22.20;99.90
37460;DHT22;23318;50.966;5.284;2023-06-22T08:10:24;22.30;99.90
37460;DHT22;23318;50.966;5.284;2023-06-22T08:12:50;22.50;99.90
37460;DHT22;23318;50.966;5.284;2023-06-22T08:15:17;22.90;99.90
37460;DHT22;23318;50.966;5.284;2023-06-22T08:17:44;23.10;99.90
37460;DHT22;23318;50.966;5.284;2023-06-22T08:20:10;23.10;99.90
37460;DHT22;23318;50.966;5.284;2023-06-22T08:22:40;23.00;99.90
37460;DHT22;23318;50.966;5.284;2023-06-22T08:25:06;23.00;99.90
37460;DHT22;23318;50.966;5.284;2023-06-22T08:27:32;23.30;99.90
37460;DHT22;23318;50.966;5.284;2023-06-22T08:29:59;23.40;99.90
37460;DHT22;23318;50.966;5.284;2023-06-22T08:32:28;23.70;99.90
37460;DHT22;23318;50.966;5.284;2023-06-22T08:34:55;24.10;99.90
37460;DHT22;23318;50.966;5.284;2023-06-22T08:37:21;24.20;99.90
37460;DHT22;23318;50.966;5.284;2023-06-22T08:39:50;24.20;99.90
37460;DHT22;23318;50.966;5.284;2023-06-22T08:42:16;24.30;99.90
37460;DHT22;23318;50.966;5.284;2023-06-22T08:44:41;24.30;99.90
37460;DHT22;23318;50.966;5.284;2023-06-22T08:47:07;24.30;99.90
37460;DHT22;23318;50.966;5.284;2023-06-22T08:49:33;24.50;99.90
37460;DHT22;23318;50.966;5.284;2023-06-22T08:51:58;24.50;99.90
37460;DHT22;23318;50.966;5.284;2023-06-22T08:54:24;24.60;99.90
37460;DHT22;23318;50.966;5.284;2023-06-22T08:56:50;24.50;99.90
37460;DHT22;23318;50.966;5.284;2023-06-22T08:59:15;24.50;99.90
37460;DHT22;23318;50.966;5.284;2023-06-22T09:01:41;24.20;99.90
37460;DHT22;23318;50.966;5.284;2023-06-22T09:04:11;23.90;99.90
37460;DHT22;23318;50.966;5.284;2023-06-22T09:06:37;23.70;99.90
37460;DHT22;23318;50.966;5.284;2023-06-22T09:09:06;23.60;99.90
37460;DHT22;23318;50.966;5.284;2023-06-22T09:11:32;23.60;99.90
37460;DHT22;23318;50.966;5.284;2023-06-22T09:13:58;23.80;99.90
37460;DHT22;23318;50.966;5.284;2023-06-22T09:16:23;23.90;99.90
37460;DHT22;23318;50.966;5.284;2023-06-22T09:18:49;23.90;99.90
37460;DHT22;23318;50.966;5.284;2023-06-22T09:21:15;24.00;99.90
37460;DHT22;23318;50.966;5.284;2023-06-22T09:23:41;23.90;99.90
37460;DHT22;23318;50.966;5.284;2023-06-22T09:26:07;23.70;99.90
37460;DHT22;23318;50.966;5.284;2023-06-22T09:28:33;23.70;99.90
37460;DHT22;23318;50.966;5.284;2023-06-22T09:30:59;23.80;99.90
37460;DHT22;23318;50.966;5.284;2023-06-22T09:33:26;23.80;99.90
37460;DHT22;23318;50.966;5.284;2023-06-22T09:35:52;23.80;99.90
37460;DHT22;23318;50.966;5.284;2023-06-22T09:38:18;23.80;99.90
37460;DHT22;23318;50.966;5.284;2023-06-22T09:40:43;23.90;99.90
37460;DHT22;23318;50.966;5.284;2023-06-22T09:43:09;24.10;99.90
37460;DHT22;23318;50.966;5.284;2023-06-22T09:45:34;24.30;99.90
37460;DHT22;23318;50.966;5.284;2023-06-22T09:48:00;24.50;99.90
37460;DHT22;23318;50.966;5.284;2023-06-22T09:50:26;24.00;99.90
37460;DHT22;23318;50.966;5.284;2023-06-22T09:52:51;24.40;99.90
37460;DHT22;23318;50.966;5.284;2023-06-22T09:55:20;24.90;99.90
37460;DHT22;23318;50.966;5.284;2023-06-22T09:57:46;24.80;99.90
37460;DHT22;23318;50.966;5.284;2023-06-22T10:00:12;24.90;99.90
37460;DHT22;23318;50.966;5.284;2023-06-22T10:02:39;25.00;99.90
37460;DHT22;23318;50.966;5.284;2023-06-22T10:05:05;24.90;99.90
37460;DHT22;23318;50.966;5.284;2023-06-22T10:07:33;24.30;99.90
37460;DHT22;23318;50.966;5.284;2023-06-22T10:09:59;24.00;99.90
37460;DHT22;23318;50.966;5.284;2023-06-22T10:12:27;24.10;99.90
37460;DHT22;23318;50.966;5.284;2023-06-22T10:14:52;23.70;99.90
37460;DHT22;23318;50.966;5.284;2023-06-22T10:17:18;23.00;99.90
37460;DHT22;23318;50.966;5.284;2023-06-22T10:19:44;23.00;99.90
37460;DHT22;23318;50.966;5.284;2023-06-22T10:22:09;23.50;99.90
37460;DHT22;23318;50.966;5.284;2023-06-22T10:24:35;23.80;99.90
37460;DHT22;23318;50.966;5.284;2023-06-22T10:27:01;23.60;99.90
37460;DHT22;23318;50.966;5.284;2023-06-22T10:29:27;23.50;99.90
37460;DHT22;23318;50.966;5.284;2023-06-22T10:31:52;23.40;99.90
37460;DHT22;23318;50.966;5.284;2023-06-22T10:34:18;23.00;99.90
37460;DHT22;23318;50.966;5.284;2023-06-22T10:36:44;22.90;99.90
37460;DHT22;23318;50.966;5.284;2023-06-22T10:39:12;22.80;99.90
37460;DHT22;23318;50.966;5.284;2023-06-22T10:41:38;22.60;99.90
37460;DHT22;23318;50.966;5.284;2023-06-22T10:44:03;22.30;99.90
37460;DHT22;23318;50.966;5.284;2023-06-22T10:46:29;21.60;99.90
37460;DHT22;23318;50.966;5.284;2023-06-22T10:48:55;21.10;99.90
37460;DHT22;23318;50.966;5.284;2023-06-22T10:51:22;21.00;99.90
37460;DHT22;23318;50.966;5.284;2023-06-22T10:53:48;21.00;99.90
37460;DHT22;23318;50.966;5.284;2023-06-22T10:56:13;21.10;99.90
37460;DHT22;23318;50.966;5.284;2023-06-22T10:58:39;21.00;99.90
37460;DHT22;23318;50.966;5.284;2023-06-22T11:01:05;21.20;99.90
37460;DHT22;23318;50.966;5.284;2023-06-22T11:03:30;21.40;99.90
37460;DHT22;23318;50.966;5.284;2023-06-22T11:05:56;21.80;99.90
37460;DHT22;23318;50.966;5.284;2023-06-22T11:08:22;22.00;99.90
37460;DHT22;23318;50.966;5.284;2023-06-22T11:10:47;22.00;99.90
37460;DHT22;23318;50.966;5.284;2023-06-22T11:13:13;22.10;99.90
37460;DHT22;23318;50.966;5.284;2023-06-22T11:15:39;22.00;99.90
37460;DHT22;23318;50.966;5.284;2023-06-22T11:18:05;21.90;99.90
37460;DHT22;23318;50.966;5.284;2023-06-22T11:20:33;22.00;99.90
37460;DHT22;23318;50.966;5.284;2023-06-22T11:23:00;22.00;99.90
37460;DHT22;23318;50.966;5.284;2023-06-22T11:25:25;22.30;99.90
37460;DHT22;23318;50.966;5.284;2023-06-22T11:27:51;22.50;99.90
37460;DHT22;23318;50.966;5.284;2023-06-22T11:30:19;22.70;99.90
37460;DHT22;23318;50.966;5.284;2023-06-22T11:32:45;22.80;99.90
37460;DHT22;23318;50.966;5.284;2023-06-22T11:35:11;23.00;99.90
37460;DHT22;23318;50.966;5.284;2023-06-22T11:37:36;23.40;99.90
37460;DHT22;23318;50.966;5.284;2023-06-22T11:40:02;23.90;99.90
37460;DHT22;23318;50.966;5.284;2023-06-22T11:42:30;24.50;99.90
37460;DHT22;23318;50.966;5.284;2023-06-22T11:44:56;24.40;99.90
37460;DHT22;23318;50.966;5.284;2023-06-22T11:47:21;23.80;99.90
37460;DHT22;23318;50.966;5.284;2023-06-22T11:49:47;23.50;99.90
37460;DHT22;23318;50.966;5.284;2023-06-22T11:52:13;23.10;99.90
37460;DHT22;23318;50.966;5.284;2023-06-22T11:54:39;22.90;99.90
37460;DHT22;23318;50.966;5.284;2023-06-22T11:57:04;22.70;99.90
37460;DHT22;23318;50.966;5.284;2023-06-22T11:59:30;22.80;99.90
37460;DHT22;23318;50.966;5.284;2023-06-22T12:01:57;22.70;99.90
37460;DHT22;23318;50.966;5.284;2023-06-22T12:04:23;22.50;99.90
37460;DHT22;23318;50.966;5.284;2023-06-22T12:06:49;22.10;99.90
37460;DHT22;23318;50.966;5.284;2023-06-22T12:09:14;22.10;99.90
37460;DHT22;23318;50.966;5.284;2023-06-22T12:11:40;21.90;99.90
37460;DHT22;23318;50.966;5.284;2023-06-22T12:14:06;21.70;99.90
37460;DHT22;23318;50.966;5.284;2023-06-22T12:16:31;21.60;99.90
37460;DHT22;23318;50.966;5.284;2023-06-22T12:18:57;21.60;99.90
37460;DHT22;23318;50.966;5.284;2023-06-22T12:21:23;21.60;99.90
37460;DHT22;23318;50.966;5.284;2023-06-22T12:23:48;21.50;99.90
37460;DHT22;23318;50.966;5.284;2023-06-22T12:26:14;21.60;99.90
37460;DHT22;23318;50.966;5.284;2023-06-22T12:28:40;21.50;99.90
37460;DHT22;23318;50.966;5.284;2023-06-22T12:31:05;21.40;99.90
37460;DHT22;23318;50.966;5.284;2023-06-22T12:33:32;21.30;99.90
37460;DHT22;23318;50.966;5.284;2023-06-22T12:35:58;21.30;99.90
37460;DHT22;23318;50.966;5.284;2023-06-22T12:38:24;21.10;99.90
37460;DHT22;23318;50.966;5.284;2023-06-22T12:40:51;21.00;99.90
37460;DHT22;23318;50.966;5.284;2023-06-22T12:43:17;21.10;99.90
37460;DHT22;23318;50.966;5.284;2023-06-22T12:45:42;21.20;99.90
37460;DHT22;23318;50.966;5.284;2023-06-22T12:48:08;21.20;99.90
37460;DHT22;23318;50.966;5.284;2023-06-22T12:50:34;21.20;99.90
37460;DHT22;23318;50.966;5.284;2023-06-22T12:53:00;21.10;99.90
37460;DHT22;23318;50.966;5.284;2023-06-22T12:55:27;21.00;99.90
37460;DHT22;23318;50.966;5.284;2023-06-22T12:57:53;20.90;99.90
37460;DHT22;23318;50.966;5.284;2023-06-22T13:00:19;20.90;99.90
37460;DHT22;23318;50.966;5.284;2023-06-22T13:02:45;20.90;99.90
37460;DHT22;23318;50.966;5.284;2023-06-22T13:05:11;20.80;99.90
37460;DHT22;23318;50.966;5.284;2023-06-22T13:07:36;20.70;99.90
37460;DHT22;23318;50.966;5.284;2023-06-22T13:10:03;20.60;99.90
37460;DHT22;23318;50.966;5.284;2023-06-22T13:12:29;20.60;99.90
37460;DHT22;23318;50.966;5.284;2023-06-22T13:14:54;20.60;99.90
37460;DHT22;23318;50.966;5.284;2023-06-22T13:17:20;20.70;99.90
37460;DHT22;23318;50.966;5.284;2023-06-22T13:19:46;20.60;99.90
37460;DHT22;23318;50.966;5.284;2023-06-22T13:22:26;20.60;99.90
37460;DHT22;23318;50.966;5.284;2023-06-22T13:24:53;20.50;99.90
37460;DHT22;23318;50.966;5.284;2023-06-22T13:27:19;20.50;99.90
37460;DHT22;23318;50.966;5.284;2023-06-22T13:29:44;20.40;99.90
37460;DHT22;23318;50.966;5.284;2023-06-22T13:32:10;20.40;99.90
37460;DHT22;23318;50.966;5.284;2023-06-22T13:34:35;20.30;99.90
37460;DHT22;23318;50.966;5.284;2023-06-22T13:37:01;20.20;99.90
37460;DHT22;23318;50.966;5.284;2023-06-22T13:39:27;20.30;99.90
37460;DHT22;23318;50.966;5.284;2023-06-22T13:41:52;20.10;99.90
37460;DHT22;23318;50.966;5.284;2023-06-22T13:44:18;19.90;99.90
37460;DHT22;23318;50.966;5.284;2023-06-22T13:46:44;19.80;99.90
37460;DHT22;23318;50.966;5.284;2023-06-22T13:49:09;19.80;99.90
37460;DHT22;23318;50.966;5.284;2023-06-22T13:51:36;19.70;99.90
37460;DHT22;23318;50.966;5.284;2023-06-22T13:54:02;19.80;99.90
37460;DHT22;23318;50.966;5.284;2023-06-22T13:56:27;19.80;99.90
37460;DHT22;23318;50.966;5.284;2023-06-22T13:58:53;19.70;99.90
37460;DHT22;23318;50.966;5.284;2023-06-22T14:01:19;19.60;99.90
37460;DHT22;23318;50.966;5.284;2023-06-22T14:03:44;19.60;99.90
37460;DHT22;23318;50.966;5.284;2023-06-22T14:06:12;19.60;99.90
37460;DHT22;23318;50.966;5.284;2023-06-22T14:08:38;19.50;99.90
37460;DHT22;23318;50.966;5.284;2023-06-22T14:11:04;19.50;99.90
37460;DHT22;23318;50.966;5.284;2023-06-22T14:13:29;19.50;99.90
37460;DHT22;23318;50.966;5.284;2023-06-22T14:15:55;19.40;99.90
37460;DHT22;23318;50.966;5.284;2023-06-22T14:18:21;19.40;99.90
37460;DHT22;23318;50.966;5.284;2023-06-22T14:20:48;19.40;99.90
37460;DHT22;23318;50.966;5.284;2023-06-22T14:23:14;19.30;99.90
37460;DHT22;23318;50.966;5.284;2023-06-22T14:25:40;19.20;99.90
37460;DHT22;23318;50.966;5.284;2023-06-22T14:28:06;19.30;99.90
37460;DHT22;23318;50.966;5.284;2023-06-22T14:30:32;19.30;99.90
37460;DHT22;23318;50.966;5.284;2023-06-22T14:32:57;19.30;99.90
37460;DHT22;23318;50.966;5.284;2023-06-22T14:35:23;19.20;99.90
37460;DHT22;23318;50.966;5.284;2023-06-22T14:37:50;19.20;99.90
37460;DHT22;23318;50.966;5.284;2023-06-22T14:40:16;19.00;99.90
37460;DHT22;23318;50.966;5.284;2023-06-22T14:42:41;18.90;99.90
37460;DHT22;23318;50.966;5.284;2023-06-22T14:45:08;18.90;99.90
37460;DHT22;23318;50.966;5.284;2023-06-22T14:47:33;18.90;99.90
37460;DHT22;23318;50.966;5.284;2023-06-22T14:49:59;19.00;99.90
37460;DHT22;23318;50.966;5.284;2023-06-22T14:52:26;19.10;99.90
37460;DHT22;23318;50.966;5.284;2023-06-22T14:54:52;19.10;99.90
37460;DHT22;23318;50.966;5.284;2023-06-22T14:57:19;18.90;99.90
37460;DHT22;23318;50.966;5.284;2023-06-22T14:59:46;18.80;99.90
37460;DHT22;23318;50.966;5.284;2023-06-22T15:02:13;19.00;99.90
37460;DHT22;23318;50.966;5.284;2023-06-22T15:04:38;18.90;99.90
37460;DHT22;23318;50.966;5.284;2023-06-22T15:07:04;18.80;99.90
37460;DHT22;23318;50.966;5.284;2023-06-22T15:09:30;18.90;99.90
37460;DHT22;23318;50.966;5.284;2023-06-22T15:11:56;18.70;99.90
37460;DHT22;23318;50.966;5.284;2023-06-22T15:14:23;18.70;99.90
37460;DHT22;23318;50.966;5.284;2023-06-22T15:16:50;18.70;99.90
37460;DHT22;23318;50.966;5.284;2023-06-22T15:19:15;18.80;99.90
37460;DHT22;23318;50.966;5.284;2023-06-22T15:21:41;18.70;99.90
37460;DHT22;23318;50.966;5.284;2023-06-22T15:24:07;18.70;99.90
37460;DHT22;23318;50.966;5.284;2023-06-22T15:26:32;18.70;99.90
37460;DHT22;23318;50.966;5.284;2023-06-22T15:28:58;18.70;99.90
37460;DHT22;23318;50.966;5.284;2023-06-22T15:31:23;18.80;99.90